createdAt,value
2023-05-14T00:00:02.250Z,72.35
2023-05-14T00:02:29.930Z,70.25
2023-05-14T00:04:58.806Z,70.75
2023-05-14T00:07:30.745Z,71.97
2023-05-14T00:09:58.448Z,71.86
2023-05-14T00:12:26.347Z,71.94
2023-05-14T00:14:54.088Z,71.13
2023-05-14T00:17:21.573Z,72.42
2023-05-14T00:19:49.122Z,72.29
2023-05-14T00:22:18.002Z,72.29
2023-05-14T00:24:45.654Z,71.93
2023-05-14T00:27:13.103Z,71.15
2023-05-14T00:29:41.144Z,71.50
2023-05-14T00:32:09.273Z,72.35
2023-05-14T00:34:36.845Z,73.11
2023-05-14T00:37:04.355Z,74.20
2023-05-14T00:39:33.198Z,74.55
2023-05-14T00:42:00.824Z,74.67
2023-05-14T00:44:28.343Z,75.77
2023-05-14T00:46:56.071Z,76.06
2023-05-14T00:49:24.258Z,75.15
2023-05-14T00:51:51.899Z,75.05
2023-05-14T00:54:20.784Z,73.54
2023-05-14T00:56:49.703Z,74.81
2023-05-14T00:59:17.394Z,74.16
2023-05-14T01:01:45.005Z,75.99
2023-05-14T01:04:12.771Z,76.15
2023-05-14T01:06:51.956Z,76.19
2023-05-14T01:09:24.018Z,75.11
2023-05-14T01:11:56.786Z,74.95
2023-05-14T01:14:29.280Z,74.85
2023-05-14T01:16:57.698Z,75.57
2023-05-14T01:19:31.024Z,74.75
2023-05-14T01:21:59.981Z,75.00
2023-05-14T01:24:27.560Z,74.71
2023-05-14T01:27:13.306Z,74.60
2023-05-14T01:29:43.811Z,75.38
2023-05-14T01:32:11.801Z,74.97
2023-05-14T01:34:40.954Z,74.65
2023-05-14T01:37:12.437Z,76.04
2023-05-14T01:39:40.683Z,75.73
2023-05-14T01:42:08.760Z,74.91
2023-05-14T01:44:36.541Z,75.36
2023-05-14T01:47:04.478Z,74.71
2023-05-14T01:49:32.557Z,75.00
2023-05-14T01:52:00.364Z,74.26
2023-05-14T01:54:29.191Z,74.09
2023-05-14T01:56:56.669Z,74.40
2023-05-14T01:59:24.359Z,74.45
2023-05-14T02:01:51.884Z,75.98
2023-05-14T02:04:20.850Z,77.06
2023-05-14T02:06:48.389Z,76.14
2023-05-14T02:09:16.048Z,75.18
2023-05-14T02:11:44.921Z,76.23
2023-05-14T02:14:12.414Z,76.44
2023-05-14T02:16:39.921Z,76.28
2023-05-14T02:19:07.542Z,76.75
2023-05-14T02:21:35.070Z,77.28
2023-05-14T02:24:02.622Z,78.47
2023-05-14T02:26:30.097Z,77.69
2023-05-14T02:28:59.275Z,77.10
2023-05-14T02:31:26.794Z,77.51
2023-05-14T02:33:54.326Z,77.13
2023-05-14T02:36:21.827Z,77.34
2023-05-14T02:38:49.318Z,77.08
2023-05-14T02:41:16.813Z,76.23
2023-05-14T02:43:44.298Z,75.88
2023-05-14T02:46:13.410Z,76.14
2023-05-14T02:48:41.052Z,76.07
2023-05-14T02:51:09.359Z,75.67
2023-05-14T02:53:36.878Z,76.86
2023-05-14T02:56:05.057Z,77.20
2023-05-14T02:58:32.723Z,77.01
2023-05-14T03:01:00.367Z,76.97
2023-05-14T03:03:30.508Z,78.20
2023-05-14T03:05:58.534Z,78.24
2023-05-14T03:08:26.012Z,78.25
2023-05-14T03:10:53.580Z,77.77
2023-05-14T03:13:21.271Z,77.53
2023-05-14T03:15:49.083Z,77.14
2023-05-14T03:18:16.661Z,78.15
2023-05-14T03:20:45.476Z,78.44
2023-05-14T03:23:13.504Z,78.66
2023-05-14T03:25:41.043Z,78.49
2023-05-14T03:28:08.796Z,78.98
2023-05-14T03:30:36.434Z,79.60
2023-05-14T03:33:04.270Z,79.76
2023-05-14T03:35:31.848Z,79.06
2023-05-14T03:38:00.782Z,79.91
2023-05-14T03:40:28.587Z,80.14
2023-05-14T03:42:56.150Z,80.17
2023-05-14T03:45:24.074Z,80.33
2023-05-14T03:47:51.692Z,80.01
2023-05-14T03:50:19.406Z,80.44
2023-05-14T03:52:46.966Z,80.04
2023-05-14T03:55:15.824Z,80.21
2023-05-14T03:57:43.616Z,79.94
2023-05-14T04:00:13.173Z,79.02
2023-05-14T04:02:46.667Z,79.13
2023-05-14T04:05:14.218Z,78.65
2023-05-14T04:07:41.732Z,78.69
2023-05-14T04:10:10.271Z,78.80
2023-05-14T04:12:39.390Z,78.95
2023-05-14T04:15:08.285Z,78.99
2023-05-14T04:17:36.134Z,79.27
2023-05-14T04:20:04.349Z,78.70
2023-05-14T04:22:32.030Z,78.79
2023-05-14T04:24:59.537Z,78.81
2023-05-14T04:27:27.044Z,79.34
2023-05-14T04:29:55.934Z,78.82
2023-05-14T04:32:23.477Z,78.96
2023-05-14T04:34:51.005Z,78.88
2023-05-14T04:37:18.490Z,79.12
2023-05-14T04:39:46.001Z,78.96
2023-05-14T04:42:13.533Z,79.42
2023-05-14T04:44:41.033Z,79.58
2023-05-14T04:47:09.855Z,79.15
2023-05-14T04:49:37.314Z,79.31
2023-05-14T04:52:05.449Z,79.09
2023-05-14T04:54:33.083Z,80.04
2023-05-14T04:57:03.162Z,79.65
2023-05-14T04:59:30.812Z,79.53
2023-05-14T05:01:58.533Z,79.55
2023-05-14T05:04:27.378Z,79.53
2023-05-14T05:06:54.843Z,79.29
2023-05-14T05:09:22.460Z,79.03
2023-05-14T05:11:49.961Z,78.90
2023-05-14T05:14:17.627Z,78.69
2023-05-14T05:16:45.407Z,79.02
2023-05-14T05:19:12.976Z,78.73
2023-05-14T05:21:41.815Z,78.84
2023-05-14T05:24:09.484Z,78.44
2023-05-14T05:26:37.155Z,78.69
2023-05-14T05:29:04.794Z,78.75
2023-05-14T05:31:32.845Z,78.97
2023-05-14T05:34:01.050Z,78.40
2023-05-14T05:36:28.647Z,78.70
2023-05-14T05:38:57.480Z,78.43
2023-05-14T05:41:24.949Z,78.07
2023-05-14T05:43:52.450Z,78.22
2023-05-14T05:46:20.064Z,78.19
2023-05-14T05:48:47.579Z,77.64
2023-05-14T05:51:15.231Z,77.19
2023-05-14T05:53:42.741Z,76.92
2023-05-14T05:56:11.588Z,76.70
2023-05-14T05:58:39.529Z,76.74
2023-05-14T06:01:07.481Z,76.59
2023-05-14T06:03:35.398Z,76.26
2023-05-14T06:06:02.971Z,76.55
2023-05-14T06:08:30.577Z,77.14
2023-05-14T06:10:58.186Z,77.46
2023-05-14T06:13:27.015Z,77.53
2023-05-14T06:15:54.514Z,77.48
2023-05-14T06:18:22.021Z,77.12
2023-05-14T06:20:49.546Z,77.48
2023-05-14T06:23:17.123Z,76.51
2023-05-14T06:25:44.635Z,76.59
2023-05-14T06:28:12.240Z,75.58
2023-05-14T06:30:41.042Z,76.18
2023-05-14T06:33:08.587Z,75.72
2023-05-14T06:35:37.039Z,74.96
2023-05-14T06:38:04.620Z,73.94
2023-05-14T06:40:32.189Z,73.67
2023-05-14T06:43:00.015Z,72.55
2023-05-14T06:45:27.723Z,71.52
2023-05-14T06:47:56.695Z,71.45
2023-05-14T06:50:24.416Z,69.11
2023-05-14T06:52:52.186Z,69.46
2023-05-14T06:55:20.014Z,69.71
2023-05-14T06:57:47.520Z,67.48
2023-05-14T07:00:16.338Z,67.78
2023-05-14T07:02:43.880Z,67.61
2023-05-14T07:05:12.773Z,67.78
2023-05-14T07:07:40.276Z,67.16
2023-05-14T07:10:09.153Z,67.47
2023-05-14T07:12:36.682Z,66.60
2023-05-14T07:15:04.658Z,66.97
2023-05-14T07:17:32.193Z,66.59
2023-05-14T07:19:59.699Z,66.47
2023-05-14T07:22:28.483Z,66.08
2023-05-14T07:24:55.971Z,65.44
2023-05-14T07:27:23.492Z,65.35
2023-05-14T07:29:51.236Z,64.85
2023-05-14T07:32:18.756Z,65.26
2023-05-14T07:34:46.290Z,65.74
2023-05-14T07:37:13.796Z,65.25
2023-05-14T07:39:43.152Z,64.19
2023-05-14T07:42:10.677Z,63.37
2023-05-14T07:44:38.212Z,62.74
2023-05-14T07:47:07.460Z,62.32
2023-05-14T07:49:35.286Z,62.11
2023-05-14T07:52:02.920Z,61.79
2023-05-14T07:54:30.456Z,61.99
2023-05-14T07:56:59.299Z,61.10
2023-05-14T07:59:26.802Z,60.59
2023-05-14T08:01:54.420Z,60.03
2023-05-14T08:04:23.378Z,60.87
2023-05-14T08:06:51.042Z,60.59
2023-05-14T08:09:18.570Z,59.70
2023-05-14T08:11:46.046Z,59.67
2023-05-14T08:14:14.819Z,59.02
2023-05-14T08:16:42.435Z,59.24
2023-05-14T08:19:10.013Z,58.52
2023-05-14T08:21:37.571Z,56.67
2023-05-14T08:24:05.654Z,57.10
2023-05-14T08:26:33.156Z,57.09
2023-05-14T08:29:00.654Z,57.26
2023-05-14T08:31:29.541Z,57.22
2023-05-14T08:33:57.078Z,57.04
2023-05-14T08:36:24.570Z,56.72
2023-05-14T08:38:52.039Z,56.19
2023-05-14T08:41:19.856Z,55.82
2023-05-14T08:43:58.273Z,55.69
2023-05-14T08:46:26.344Z,56.55
2023-05-14T08:48:59.026Z,55.38
2023-05-14T08:51:27.612Z,55.64
2023-05-14T08:53:55.664Z,54.59
2023-05-14T08:56:23.791Z,54.96
2023-05-14T08:58:51.296Z,54.45
2023-05-14T09:01:19.898Z,54.49
2023-05-14T09:03:47.972Z,54.76
2023-05-14T09:06:17.298Z,54.23
2023-05-14T09:08:44.976Z,54.07
2023-05-14T09:11:12.846Z,54.83
2023-05-14T09:13:41.031Z,55.29
2023-05-14T09:16:08.741Z,54.08
2023-05-14T09:18:37.236Z,54.35
2023-05-14T09:21:05.526Z,54.43
2023-05-14T09:23:34.661Z,54.46
2023-05-14T09:26:05.858Z,54.50
2023-05-14T09:28:33.353Z,53.88
2023-05-14T09:31:00.870Z,53.92
2023-05-14T09:33:29.144Z,54.06
2023-05-14T09:36:00.285Z,53.86
2023-05-14T09:38:31.521Z,53.50
2023-05-14T09:41:01.173Z,54.36
2023-05-14T09:43:28.681Z,53.61
2023-05-14T09:45:56.193Z,54.28
2023-05-14T09:48:24.357Z,54.06
2023-05-14T09:50:52.541Z,54.43
2023-05-14T09:53:20.271Z,54.09
2023-05-14T09:55:49.244Z,53.94
2023-05-14T09:58:18.107Z,53.85
2023-05-14T10:00:47.261Z,54.74
2023-05-14T10:03:18.846Z,54.60
2023-05-14T10:05:50.230Z,54.83
2023-05-14T10:08:21.587Z,55.70
2023-05-14T10:10:50.458Z,55.33
2023-05-14T10:13:23.562Z,55.47
2023-05-14T10:15:54.614Z,55.05
2023-05-14T10:18:24.372Z,55.24
2023-05-14T10:20:58.471Z,54.38
2023-05-14T10:23:28.347Z,54.65
2023-05-14T10:25:55.932Z,54.13
2023-05-14T10:28:25.005Z,54.24
2023-05-14T10:30:52.546Z,54.24
2023-05-14T10:33:20.062Z,53.52
2023-05-14T10:35:58.112Z,54.39
2023-05-14T10:38:28.042Z,54.15
2023-05-14T10:40:57.767Z,55.51
2023-05-14T10:43:28.522Z,54.82
2023-05-14T10:45:56.481Z,54.80
2023-05-14T10:48:24.656Z,54.88
2023-05-14T10:50:52.881Z,55.57
2023-05-14T10:53:21.105Z,55.61
2023-05-14T10:55:48.644Z,55.61
2023-05-14T10:58:16.403Z,55.29
2023-05-14T11:00:48.975Z,55.94
2023-05-14T11:03:16.990Z,55.65
2023-05-14T11:05:45.203Z,55.51
2023-05-14T11:08:13.326Z,55.24
2023-05-14T11:10:40.864Z,55.14
2023-05-14T11:13:08.392Z,55.51
2023-05-14T11:15:36.122Z,55.41
2023-05-14T11:18:05.178Z,55.19
2023-05-14T11:20:33.106Z,55.53
2023-05-14T11:23:00.639Z,55.35
2023-05-14T11:25:28.259Z,55.28
2023-05-14T11:27:58.657Z,55.45
2023-05-14T11:30:26.293Z,55.14
2023-05-14T11:32:54.300Z,54.97
2023-05-14T11:35:23.731Z,55.06
2023-05-14T11:37:53.168Z,54.99
2023-05-14T11:40:21.444Z,55.04
2023-05-14T11:42:52.038Z,55.24
2023-05-14T11:45:26.226Z,55.34
2023-05-14T11:47:54.527Z,55.55
2023-05-14T11:50:23.872Z,55.48
2023-05-14T11:52:51.658Z,55.71
2023-05-14T11:55:19.171Z,55.56
2023-05-14T11:57:46.759Z,55.44
2023-05-14T12:00:21.379Z,55.19
2023-05-14T12:02:49.640Z,55.32
2023-05-14T12:05:17.406Z,55.88
2023-05-14T12:07:46.938Z,55.75
2023-05-14T12:10:14.542Z,55.92
2023-05-14T12:12:48.955Z,56.22
2023-05-14T12:15:17.282Z,55.56
2023-05-14T12:17:50.885Z,56.60
2023-05-14T12:20:18.538Z,55.99
2023-05-14T12:22:47.395Z,56.66
2023-05-14T12:25:14.966Z,56.19
2023-05-14T12:27:45.596Z,56.16
2023-05-14T12:30:34.686Z,56.23
2023-05-14T12:33:01.484Z,56.47
2023-05-14T12:35:29.016Z,56.30
2023-05-14T12:37:57.918Z,56.42
2023-05-14T12:40:25.625Z,56.19
2023-05-14T12:42:54.420Z,56.58
2023-05-14T12:45:23.813Z,56.42
2023-05-14T12:47:51.406Z,56.14
2023-05-14T12:50:19.051Z,56.43
2023-05-14T12:52:46.639Z,55.39
2023-05-14T12:55:15.465Z,55.38
2023-05-14T12:57:42.947Z,54.96
2023-05-14T13:00:21.264Z,55.48
2023-05-14T13:02:48.874Z,55.68
2023-05-14T13:05:16.400Z,54.71
2023-05-14T13:07:43.946Z,55.54
2023-05-14T13:10:12.094Z,56.07
2023-05-14T13:12:40.962Z,55.63
2023-05-14T13:15:09.658Z,55.99
2023-05-14T13:17:37.297Z,56.07
2023-05-14T13:20:06.124Z,54.99
2023-05-14T13:22:33.624Z,55.38
2023-05-14T13:25:01.132Z,57.91
2023-05-14T13:27:28.609Z,61.47
2023-05-14T13:29:57.679Z,61.64
2023-05-14T13:32:26.303Z,59.53
2023-05-14T13:34:53.804Z,61.65
2023-05-14T13:37:21.531Z,60.85
2023-05-14T13:39:51.318Z,63.74
2023-05-14T13:42:19.067Z,62.30
2023-05-14T13:44:46.673Z,61.60
2023-05-14T13:47:15.489Z,61.13
2023-05-14T13:49:43.668Z,62.03
2023-05-14T13:52:11.202Z,62.27
2023-05-14T13:54:38.911Z,62.62
2023-05-14T13:57:06.586Z,63.38
2023-05-14T13:59:34.092Z,61.73
2023-05-14T14:02:01.748Z,61.89
2023-05-14T14:04:30.709Z,62.37
2023-05-14T14:06:58.668Z,63.43
2023-05-14T14:09:26.331Z,61.44
2023-05-14T14:11:53.855Z,61.08
2023-05-14T14:14:21.453Z,61.50
2023-05-14T14:16:48.928Z,60.93
2023-05-14T14:19:17.795Z,61.60
2023-05-14T14:21:47.483Z,62.61
2023-05-14T14:24:14.990Z,64.79
2023-05-14T14:26:42.506Z,63.66
2023-05-14T14:29:10.054Z,63.19
2023-05-14T14:31:37.679Z,65.59
2023-05-14T14:34:05.485Z,67.11
2023-05-14T14:36:33.017Z,68.98
2023-05-14T14:39:01.888Z,67.39
2023-05-14T14:41:29.563Z,66.42
2023-05-14T14:43:57.359Z,69.92
2023-05-14T14:46:24.883Z,67.68
2023-05-14T14:48:52.727Z,70.12
2023-05-14T14:51:20.262Z,69.96
2023-05-14T14:53:47.794Z,68.93
2023-05-14T14:56:16.651Z,69.72
2023-05-14T14:58:45.389Z,69.01
2023-05-14T15:01:13.066Z,67.30
2023-05-14T15:03:41.070Z,67.62
2023-05-14T15:06:09.078Z,66.33
2023-05-14T15:08:36.583Z,64.41
2023-05-14T15:11:04.116Z,63.98
2023-05-14T15:13:33.055Z,63.33
2023-05-14T15:16:00.822Z,64.40
2023-05-14T15:18:28.404Z,63.84
2023-05-14T15:20:57.221Z,63.84
2023-05-14T15:23:24.740Z,65.26
2023-05-14T15:25:52.246Z,65.72
2023-05-14T15:28:23.083Z,65.39
2023-05-14T15:30:55.982Z,66.29
2023-05-14T15:33:23.886Z,66.45
2023-05-14T15:35:51.656Z,66.74
2023-05-14T15:38:19.184Z,66.40
2023-05-14T15:40:46.679Z,66.27
2023-05-14T15:43:14.276Z,65.81
2023-05-14T15:45:41.816Z,66.52
2023-05-14T15:48:10.746Z,66.76
2023-05-14T15:50:38.690Z,67.15
2023-05-14T15:53:06.277Z,67.41
2023-05-14T15:55:33.798Z,67.76
2023-05-14T15:58:01.307Z,67.63
2023-05-14T16:00:28.775Z,67.14
2023-05-14T16:02:56.344Z,66.60
2023-05-14T16:05:25.430Z,67.79
2023-05-14T16:07:52.996Z,68.13
2023-05-14T16:10:21.258Z,68.47
2023-05-14T16:12:48.881Z,68.37
2023-05-14T16:15:16.479Z,69.45
2023-05-14T16:17:44.146Z,68.98
2023-05-14T16:20:13.113Z,70.09
2023-05-14T16:22:42.209Z,69.74
2023-05-14T16:25:09.964Z,70.07
2023-05-14T16:27:37.579Z,70.50
2023-05-14T16:30:05.961Z,70.57
2023-05-14T16:32:33.746Z,69.57
2023-05-14T16:35:02.704Z,69.52
2023-05-14T16:37:30.277Z,69.32
2023-05-14T16:39:59.332Z,69.71
2023-05-14T16:42:27.500Z,69.96
2023-05-14T16:44:55.286Z,69.60
2023-05-14T16:47:22.954Z,69.39
2023-05-14T16:49:50.468Z,70.19
2023-05-14T16:52:17.974Z,72.36
2023-05-14T16:54:45.437Z,73.11
2023-05-14T16:57:14.491Z,72.20
2023-05-14T16:59:41.975Z,71.67
2023-05-14T17:02:10.006Z,72.07
2023-05-14T17:04:38.751Z,72.06
2023-05-14T17:07:06.454Z,74.13
2023-05-14T17:09:33.957Z,75.42
2023-05-14T17:12:01.458Z,75.26
2023-05-14T17:14:30.303Z,75.57
2023-05-14T17:16:57.861Z,74.46
2023-05-14T17:19:25.332Z,74.63
2023-05-14T17:21:52.813Z,74.19
2023-05-14T17:24:20.338Z,75.35
2023-05-14T17:26:47.869Z,76.02
2023-05-14T17:29:15.422Z,77.68
2023-05-14T17:31:44.250Z,76.58
2023-05-14T17:34:11.788Z,75.49
2023-05-14T17:36:39.548Z,74.73
2023-05-14T17:39:07.061Z,74.76
2023-05-14T17:41:34.572Z,74.61
2023-05-14T17:44:02.079Z,74.46
2023-05-14T17:46:29.656Z,74.29
2023-05-14T17:48:58.642Z,75.15
2023-05-14T17:51:26.274Z,75.25
2023-05-14T17:53:53.874Z,75.48
2023-05-14T17:56:21.436Z,75.85
2023-05-14T17:58:50.041Z,76.55
2023-05-14T18:01:17.654Z,75.87
2023-05-14T18:03:45.211Z,76.84
2023-05-14T18:06:15.002Z,77.14
2023-05-14T18:08:42.605Z,77.44
2023-05-14T18:11:10.244Z,76.66
2023-05-14T18:13:38.105Z,77.32
2023-05-14T18:16:06.550Z,77.69
2023-05-14T18:18:34.192Z,77.50
2023-05-14T18:21:01.798Z,78.37
2023-05-14T18:23:31.391Z,78.33
2023-05-14T18:25:58.895Z,78.73
2023-05-14T18:28:26.438Z,80.31
2023-05-14T18:30:53.915Z,80.73
2023-05-14T18:33:21.456Z,79.19
2023-05-14T18:35:48.995Z,79.33
2023-05-14T18:38:19.241Z,80.01
2023-05-14T18:40:49.345Z,81.50
2023-05-14T18:43:18.415Z,82.32
2023-05-14T18:45:47.308Z,82.29
2023-05-14T18:48:14.846Z,82.48
2023-05-14T18:50:42.341Z,81.19
2023-05-14T18:53:11.906Z,81.45
2023-05-14T18:55:42.339Z,82.15
2023-05-14T18:58:12.008Z,81.68
2023-05-14T19:00:39.635Z,80.49
2023-05-14T19:03:10.338Z,79.80
2023-05-14T19:05:37.959Z,79.94
2023-05-14T19:08:05.875Z,80.33
2023-05-14T19:10:34.638Z,80.90
2023-05-14T19:13:02.225Z,81.95
2023-05-14T19:15:31.064Z,82.14
2023-05-14T19:17:59.906Z,81.82
2023-05-14T19:20:27.585Z,82.31
2023-05-14T19:22:55.082Z,81.64
2023-05-14T19:25:22.567Z,81.66
2023-05-14T19:27:51.045Z,83.13
2023-05-14T19:30:18.624Z,83.52
2023-05-14T19:32:47.482Z,83.39
2023-05-14T19:35:15.075Z,83.49
2023-05-14T19:37:42.638Z,82.44
2023-05-14T19:40:10.690Z,82.88
2023-05-14T19:42:38.203Z,82.72
2023-05-14T19:45:06.723Z,82.88
2023-05-14T19:47:34.250Z,82.25
2023-05-14T19:50:04.056Z,82.03
2023-05-14T19:52:31.548Z,82.91
2023-05-14T19:54:59.164Z,82.89
2023-05-14T19:57:26.964Z,83.01
2023-05-14T19:59:54.528Z,83.05
2023-05-14T20:02:22.694Z,83.15
2023-05-14T20:04:50.380Z,83.02
2023-05-14T20:07:20.132Z,83.01
2023-05-14T20:09:47.729Z,83.61
2023-05-14T20:12:16.545Z,83.21
2023-05-14T20:14:44.105Z,83.99
2023-05-14T20:17:11.677Z,83.59
2023-05-14T20:19:39.216Z,83.76
2023-05-14T20:22:06.891Z,82.81
2023-05-14T20:24:35.753Z,83.51
2023-05-14T20:27:03.319Z,82.68
2023-05-14T20:29:30.953Z,82.64
2023-05-14T20:31:58.433Z,83.01
2023-05-14T20:34:25.986Z,82.89
2023-05-14T20:36:53.526Z,83.55
2023-05-14T20:39:21.098Z,83.13
2023-05-14T20:41:49.950Z,82.67
2023-05-14T20:44:18.434Z,82.96
2023-05-14T20:46:48.095Z,82.85
2023-05-14T20:49:15.853Z,81.48
2023-05-14T20:51:43.410Z,81.17
2023-05-14T20:54:10.934Z,80.73
2023-05-14T20:56:38.460Z,81.51
2023-05-14T20:59:07.283Z,82.68
2023-05-14T21:01:34.867Z,82.98
2023-05-14T21:04:02.540Z,83.74
2023-05-14T21:06:30.192Z,84.39
2023-05-14T21:08:57.692Z,84.60
2023-05-14T21:11:25.577Z,85.24
2023-05-14T21:13:53.342Z,85.49
2023-05-14T21:16:22.263Z,86.11
2023-05-14T21:18:49.836Z,85.39
2023-05-14T21:21:17.355Z,87.35
2023-05-14T21:23:44.846Z,86.16
2023-05-14T21:26:12.393Z,84.68
2023-05-14T21:28:39.938Z,84.30
2023-05-14T21:31:07.444Z,83.87
2023-05-14T21:33:36.236Z,84.45
2023-05-14T21:36:03.942Z,85.00
2023-05-14T21:38:32.456Z,85.60
2023-05-14T21:41:00.254Z,85.03
2023-05-14T21:43:27.878Z,85.31
2023-05-14T21:45:55.401Z,84.89
2023-05-14T21:48:23.114Z,84.23
2023-05-14T21:50:52.083Z,84.13
2023-05-14T21:53:19.603Z,82.91
2023-05-14T21:55:47.211Z,83.60
2023-05-14T21:58:14.718Z,83.72
2023-05-14T22:00:42.204Z,83.79
2023-05-14T22:03:09.750Z,84.16
2023-05-14T22:05:37.380Z,84.50
2023-05-14T22:08:07.239Z,84.81
2023-05-14T22:10:35.715Z,84.75
2023-05-14T22:13:03.217Z,83.91
2023-05-14T22:15:30.726Z,84.15
2023-05-14T22:17:58.295Z,85.08
2023-05-14T22:20:25.873Z,84.48
2023-05-14T22:22:53.453Z,84.80
2023-05-14T22:25:22.553Z,85.05
2023-05-14T22:27:50.310Z,85.16
2023-05-14T22:30:17.830Z,85.42
2023-05-14T22:32:45.406Z,85.61
2023-05-14T22:35:12.910Z,85.73
2023-05-14T22:37:40.402Z,86.25
2023-05-14T22:40:11.219Z,85.46
2023-05-14T22:42:40.099Z,85.81
2023-05-14T22:45:08.810Z,85.82
2023-05-14T22:47:36.401Z,85.85
2023-05-14T22:50:04.138Z,86.24
2023-05-14T22:52:31.632Z,86.24
2023-05-14T22:55:00.684Z,85.70
2023-05-14T22:57:28.236Z,85.17
2023-05-14T22:59:57.118Z,84.49
2023-05-14T23:02:24.636Z,84.93
2023-05-14T23:04:52.507Z,85.08
2023-05-14T23:07:20.180Z,84.87
2023-05-14T23:09:47.730Z,84.85
2023-05-14T23:12:15.182Z,85.03
2023-05-14T23:14:42.693Z,84.85
2023-05-14T23:17:11.482Z,85.21
2023-05-14T23:19:39.113Z,84.42
2023-05-14T23:22:06.765Z,83.88
2023-05-14T23:24:34.229Z,83.61
2023-05-14T23:27:01.756Z,83.72
2023-05-14T23:29:29.254Z,83.79
2023-05-14T23:31:56.754Z,84.46
2023-05-14T23:34:25.632Z,84.27
2023-05-14T23:36:53.251Z,83.84
2023-05-14T23:39:22.296Z,83.90
2023-05-14T23:41:49.760Z,84.20
2023-05-14T23:44:17.286Z,83.94
2023-05-14T23:46:44.968Z,83.57
2023-05-14T23:49:12.993Z,83.09
2023-05-14T23:51:41.909Z,83.82
2023-05-14T23:54:09.417Z,83.97
2023-05-14T23:56:36.949Z,84.16
2023-05-14T23:59:04.862Z,84.32
